KPMD/PMD METAR and TAF weather

Enter ICAO airport designator
Station Type Date Time Source
KPMD METAR 2021/01/17 18:53 UTC NOAA

KPMD 171853Z 34003KT 10SM CLR 15/M04 A3022 RMK AO2 SLP225 T01501039


Station Type Date Time Source
KPMD Decoded METAR 2021/01/17 18:53 UTC NOAA

PALMDALE PROD FLIGHT PLANT, CA, United States (KPMD) 34-38N 118-05W 780M
Jan 17, 2021 - 01:53 PM EST / 2021.01.17 1853 UTC
Wind: from the NNW (340 degrees) at 3 MPH (3 KT):0
Visibility: 10 mile(s):0
Sky conditions: clear
Temperature: 59.0 F (15.0 C)
Dew Point: 25.0 F (-3.9 C)
Relative Humidity: 26%
Pressure (altimeter): 30.22 in. Hg (1023 hPa)
ob: KPMD 171853Z 34003KT 10SM CLR 15/M04 A3022 RMK AO2 SLP225 T01501039
cycle: 19

Station Type Date Time Source
KPMD TAF 2021/01/17 18:42 UTC NOAA

TAF KPMD 171739Z 1718/1818 VRB05KT P6SM SKC
FM171900 03008KT P6SM SKC
FM180300 10005KT P6SM SKC
FM180700 VRB05KT P6SM SKC

Example: see airport list